Time;durP1;ratioP1;P1;durP2;ratioP2;P2;SDS_P1;SDS_P2;PMS_P1;PMS_P2;Temp;Humidity;BMP_temperature;BMP_pressure;BME280_temperature;BME280_humidity;BME280_pressure;Samples;Min_cycle;Max_cycle;Signal;HPM_P1;HPM_P2
2023/04/24 00:00:58;;;;;;;10.90;9.77;;;22.50;79.30;;;;;;6253119;28;89136;-68
2023/04/24 00:04:03;;;;;;;11.40;10.20;;;22.50;79.40;;;;;;6248250;27;90069;-69
2023/04/24 00:07:06;;;;;;;10.55;9.45;;;22.40;79.30;;;;;;6257753;28;88940;-68
2023/04/24 00:10:09;;;;;;;11.10;9.90;;;22.40;79.20;;;;;;6254157;28;89126;-68
2023/04/24 00:13:13;;;;;;;10.98;9.82;;;22.40;79.20;;;;;;6254541;28;89122;-68
2023/04/24 00:16:15;;;;;;;10.70;9.70;;;22.50;79.30;;;;;;6255422;28;89450;-68
2023/04/24 00:19:21;;;;;;;11.02;9.93;;;22.40;79.10;;;;;;6259608;27;89326;-69
2023/04/24 00:22:23;;;;;;;10.85;9.75;;;22.50;79.20;;;;;;6255040;27;89015;-69
2023/04/24 00:25:25;;;;;;;11.15;10.05;;;22.40;79.10;;;;;;6259184;28;88672;-69
2023/04/24 00:28:27;;;;;;;11.43;10.32;;;22.40;79.10;;;;;;6257758;28;87866;-69
2023/04/24 00:31:29;;;;;;;11.48;10.38;;;22.40;79.10;;;;;;6255533;28;89092;-68
2023/04/24 00:34:32;;;;;;;11.63;10.52;;;22.40;79.20;;;;;;6254601;28;89979;-69
2023/04/24 00:37:34;;;;;;;11.25;9.75;;;22.40;79.10;;;;;;6257204;28;89064;-68
2023/04/24 00:40:36;;;;;;;11.70;10.50;;;22.40;79.20;;;;;;6253990;28;89038;-69
2023/04/24 00:43:38;;;;;;;10.38;9.27;;;22.40;79.10;;;;;;6251697;28;89153;-69
2023/04/24 00:46:41;;;;;;;9.20;8.02;;;22.40;79.10;;;;;;6246882;28;89368;-69
2023/04/24 00:49:44;;;;;;;8.85;7.95;;;22.40;78.40;;;;;;6256138;27;89046;-68
2023/04/24 00:52:46;;;;;;;9.32;8.38;;;22.40;78.40;;;;;;6247479;28;89317;-68
2023/04/24 00:55:48;;;;;;;9.50;8.52;;;22.40;78.40;;;;;;6257113;28;87609;-69
2023/04/24 00:58:50;;;;;;;9.10;8.20;;;22.40;78.60;;;;;;6256559;28;89083;-68
2023/04/24 01:01:53;;;;;;;10.02;8.95;;;22.40;78.70;;;;;;6245422;28;89128;-68
2023/04/24 01:04:56;;;;;;;9.25;8.25;;;22.40;78.80;;;;;;6257720;28;90046;-69
2023/04/24 01:08:00;;;;;;;9.63;8.60;;;22.40;78.80;;;;;;6240591;28;89627;-68
2023/04/24 01:11:05;;;;;;;9.40;8.50;;;22.40;78.80;;;;;;6250113;28;89019;-68
2023/04/24 01:14:07;;;;;;;9.45;8.45;;;22.40;78.80;;;;;;6251195;28;88048;-69
2023/04/24 01:17:10;;;;;;;9.50;8.60;;;22.40;78.80;;;;;;6250863;28;89085;-68
2023/04/24 01:20:15;;;;;;;9.35;8.35;;;22.40;78.80;;;;;;6246232;28;89165;-69
2023/04/24 01:23:18;;;;;;;9.02;8.07;;;22.40;78.70;;;;;;6256862;28;89139;-68
2023/04/24 01:26:21;;;;;;;9.52;8.57;;;22.40;78.70;;;;;;6255681;28;87857;-69
2023/04/24 01:29:23;;;;;;;9.80;8.60;;;22.30;78.60;;;;;;6252278;28;89368;-68
2023/04/24 01:32:25;;;;;;;9.40;8.50;;;22.30;78.60;;;;;;6256860;28;89698;-68
2023/04/24 01:35:28;;;;;;;9.70;8.70;;;22.40;78.80;;;;;;6245581;28;90023;-69
2023/04/24 01:38:31;;;;;;;9.07;8.18;;;22.30;78.70;;;;;;6248860;28;90131;-68
2023/04/24 01:41:33;;;;;;;9.35;8.45;;;22.30;78.70;;;;;;6244422;28;89058;-69
2023/04/24 01:44:35;;;;;;;9.43;8.52;;;22.30;78.70;;;;;;6251001;28;89361;-69
2023/04/24 01:47:38;;;;;;;9.63;8.65;;;22.30;78.80;;;;;;6255678;28;89188;-69
2023/04/24 01:50:41;;;;;;;9.07;8.10;;;22.30;78.70;;;;;;6255178;28;89038;-69
2023/04/24 01:53:44;;;;;;;9.10;8.23;;;22.30;78.80;;;;;;6254671;28;89138;-69
2023/04/24 01:56:47;;;;;;;8.88;8.02;;;22.40;78.80;;;;;;6255932;28;88272;-69
2023/04/24 01:59:49;;;;;;;9.18;8.27;;;22.30;78.70;;;;;;6256513;28;90543;-68
2023/04/24 02:02:51;;;;;;;9.38;8.48;;;22.40;78.80;;;;;;6254754;28;89069;-69
2023/04/24 02:05:54;;;;;;;9.07;8.18;;;22.30;78.70;;;;;;6254799;28;90026;-69
2023/04/24 02:08:57;;;;;;;9.27;8.38;;;22.40;78.70;;;;;;6250335;28;89170;-69
2023/04/24 02:12:00;;;;;;;9.43;8.45;;;22.30;78.70;;;;;;6251930;28;89169;-69
2023/04/24 02:15:02;;;;;;;8.75;7.70;;;22.40;78.80;;;;;;6251090;28;88154;-69
2023/04/24 02:18:06;;;;;;;9.13;8.23;;;22.30;78.70;;;;;;6249515;28;88012;-69
2023/04/24 02:21:08;;;;;;;8.93;8.02;;;22.30;78.70;;;;;;6254433;28;89154;-69
2023/04/24 02:24:12;;;;;;;9.35;8.45;;;22.30;78.70;;;;;;6256719;28;89158;-69
2023/04/24 02:27:14;;;;;;;8.55;7.75;;;22.30;78.70;;;;;;6251359;27;88426;-70
2023/04/24 02:30:16;;;;;;;9.07;7.82;;;22.30;78.70;;;;;;6248598;28;89469;-69
2023/04/24 02:33:18;;;;;;;9.20;8.30;;;22.30;78.70;;;;;;6251924;28;88990;-69
2023/04/24 02:36:20;;;;;;;8.65;7.80;;;22.30;78.60;;;;;;6251612;28;90347;-69
2023/04/24 02:39:24;;;;;;;8.98;8.18;;;22.40;78.80;;;;;;6256046;28;89394;-69
2023/04/24 02:42:26;;;;;;;8.80;7.93;;;22.30;78.70;;;;;;6252654;28;89066;-69
2023/04/24 02:45:28;;;;;;;8.50;7.70;;;22.30;78.60;;;;;;6249590;28;89066;-70
2023/04/24 02:48:30;;;;;;;8.57;7.75;;;22.30;78.60;;;;;;6256423;28;89426;-69
2023/04/24 02:51:32;;;;;;;13.48;8.00;;;22.30;78.60;;;;;;6250256;27;89036;-68
2023/04/24 02:54:35;;;;;;;9.45;7.85;;;22.30;78.70;;;;;;6246653;28;89071;-69
2023/04/24 02:57:37;;;;;;;8.32;7.53;;;22.30;78.60;;;;;;6255621;28;87566;-69
2023/04/24 03:00:39;;;;;;;8.32;7.53;;;22.30;78.60;;;;;;6244586;28;89345;-69
2023/04/24 03:03:42;;;;;;;8.15;7.35;;;22.30;78.60;;;;;;6256171;28;89188;-69
2023/04/24 03:06:43;;;;;;;8.50;7.65;;;22.30;78.70;;;;;;6254710;28;90259;-69
2023/04/24 03:09:47;;;;;;;8.13;7.32;;;22.30;78.60;;;;;;6246650;28;89039;-69
2023/04/24 03:12:49;;;;;;;8.60;7.80;;;22.30;78.60;;;;;;6250587;28;89124;-69
2023/04/24 03:15:52;;;;;;;9.20;7.93;;;22.30;78.60;;;;;;6243812;28;89142;-68
2023/04/24 03:18:54;;;;;;;8.15;7.35;;;22.30;78.60;;;;;;6243321;28;88028;-69
2023/04/24 03:21:56;;;;;;;8.63;7.25;;;22.30;78.60;;;;;;6255803;28;88385;-69
2023/04/24 03:25:00;;;;;;;7.80;7.00;;;22.30;78.60;;;;;;6254918;28;89332;-68
2023/04/24 03:28:02;;;;;;;8.32;7.45;;;22.20;78.50;;;;;;6254378;28;88332;-69
2023/04/24 03:31:04;;;;;;;9.45;7.63;;;22.30;78.60;;;;;;6254767;28;89060;-68
2023/04/24 03:34:06;;;;;;;8.40;7.50;;;22.20;79.40;;;;;;6253526;28;89427;-68
2023/04/24 03:37:08;;;;;;;8.70;7.32;;;22.30;78.60;;;;;;6244662;28;90357;-68
2023/04/24 03:40:12;;;;;;;7.70;6.90;;;22.20;78.60;;;;;;6253638;28;89118;-68
2023/04/24 03:43:14;;;;;;;7.55;6.85;;;22.30;78.60;;;;;;6245849;28;89023;-68
2023/04/24 03:46:16;;;;;;;7.40;6.70;;;22.20;78.60;;;;;;6251167;28;89002;-68
2023/04/24 03:49:18;;;;;;;7.80;7.00;;;22.20;78.50;;;;;;6253649;28;89164;-68
2023/04/24 03:52:20;;;;;;;6.90;6.20;;;22.20;78.50;;;;;;6244331;28;89238;-68
2023/04/24 03:55:24;;;;;;;7.32;6.63;;;22.30;78.60;;;;;;6252747;28;89238;-68
2023/04/24 03:58:26;;;;;;;8.60;6.57;;;22.20;78.40;;;;;;6255142;28;88469;-68
2023/04/24 04:01:28;;;;;;;6.82;6.05;;;22.20;78.60;;;;;;6254739;27;89038;-66
2023/04/24 04:04:30;;;;;;;7.70;6.93;;;22.20;78.60;;;;;;6257882;27;88966;-68
2023/04/24 04:07:32;;;;;;;8.23;7.30;;;22.20;79.10;;;;;;6243823;27;90120;-67
2023/04/24 04:10:35;;;;;;;7.40;6.63;;;22.30;79.30;;;;;;6252721;27;89146;-68
2023/04/24 04:13:37;;;;;;;7.45;6.50;;;22.30;79.50;;;;;;6244273;27;89125;-67
2023/04/24 04:16:39;;;;;;;6.82;6.00;;;22.30;79.80;;;;;;6242789;27;89017;-66
2023/04/24 04:19:41;;;;;;;8.20;5.93;;;22.30;79.70;;;;;;6254297;27;87977;-68
2023/04/24 04:22:43;;;;;;;7.47;5.95;;;22.30;79.70;;;;;;6254420;27;89107;-67
2023/04/24 04:25:47;;;;;;;6.40;5.75;;;22.30;79.70;;;;;;6252280;27;87998;-68
2023/04/24 04:28:49;;;;;;;6.72;5.47;;;22.30;80.10;;;;;;6242808;27;88600;-68
2023/04/24 04:31:52;;;;;;;5.53;4.40;;;22.30;79.70;;;;;;6247688;27;89405;-68
2023/04/24 04:34:54;;;;;;;8.00;4.60;;;22.30;78.90;;;;;;6252420;27;89226;-70
2023/04/24 04:37:58;;;;;;;6.38;3.67;;;22.30;79.10;;;;;;6243518;27;90100;-68
2023/04/24 04:41:02;;;;;;;4.82;3.72;;;22.30;79.80;;;;;;6242769;27;89020;-68
2023/04/24 04:44:04;;;;;;;6.00;3.78;;;22.30;80.10;;;;;;6248707;27;89089;-69
2023/04/24 04:47:08;;;;;;;5.63;3.55;;;22.30;80.00;;;;;;6253470;28;88992;-68
2023/04/24 04:50:11;;;;;;;5.38;3.35;;;22.30;79.60;;;;;;6246552;27;89481;-68
2023/04/24 04:53:14;;;;;;;5.00;3.17;;;22.30;79.30;;;;;;6250542;27;89267;-68
2023/04/24 04:56:17;;;;;;;7.25;3.10;;;22.30;78.90;;;;;;6243951;27;89038;-68
2023/04/24 04:59:19;;;;;;;3.53;3.00;;;22.30;78.80;;;;;;6258136;27;88357;-68
2023/04/24 05:02:21;;;;;;;5.28;2.80;;;22.30;78.70;;;;;;6256765;27;88294;-68
2023/04/24 05:05:23;;;;;;;5.70;2.63;;;22.30;78.50;;;;;;6250265;28;89037;-68
2023/04/24 05:08:25;;;;;;;3.65;3.20;;;22.40;78.40;;;;;;6241823;27;90132;-68
2023/04/24 05:11:28;;;;;;;5.82;2.63;;;22.30;78.30;;;;;;6253054;27;88363;-68
2023/04/24 05:14:30;;;;;;;4.07;2.70;;;22.40;78.30;;;;;;6255256;27;88086;-67
2023/04/24 05:17:32;;;;;;;2.50;2.30;;;22.30;78.10;;;;;;6251860;27;89978;-68
2023/04/24 05:20:34;;;;;;;2.28;1.90;;;22.30;78.10;;;;;;6252559;28;89167;-68
2023/04/24 05:23:36;;;;;;;2.40;2.10;;;22.30;77.70;;;;;;6250735;27;88972;-67
2023/04/24 05:26:39;;;;;;;2.42;2.20;;;22.30;77.70;;;;;;6254315;27;89116;-68
2023/04/24 05:29:41;;;;;;;2.88;2.15;;;22.30;77.80;;;;;;6251775;27;88712;-68
2023/04/24 05:32:43;;;;;;;2.63;2.10;;;22.40;77.70;;;;;;6257920;27;91633;-67
2023/04/24 05:35:46;;;;;;;2.45;1.90;;;22.30;77.70;;;;;;6248371;27;89066;-68
2023/04/24 05:38:48;;;;;;;2.55;1.95;;;22.30;77.70;;;;;;6268314;27;90313;-67
2023/04/24 05:41:51;;;;;;;2.20;1.90;;;22.30;77.70;;;;;;6246557;27;88886;-68
2023/04/24 05:44:54;;;;;;;2.83;1.90;;;22.40;77.70;;;;;;6249161;27;89088;-68
2023/04/24 05:47:56;;;;;;;2.55;2.10;;;22.40;77.60;;;;;;6243877;28;89515;-67
2023/04/24 05:50:58;;;;;;;2.63;2.10;;;22.40;77.60;;;;;;6253224;28;89035;-68
2023/04/24 05:54:01;;;;;;;2.58;1.90;;;22.40;77.50;;;;;;6246390;28;89041;-67
2023/04/24 05:57:07;;;;;;;2.40;2.10;;;22.50;77.50;;;;;;6248502;28;88999;-68
2023/04/24 06:00:11;;;;;;;2.90;1.90;;;22.50;77.40;;;;;;6253694;28;88750;-67
2023/04/24 06:03:13;;;;;;;2.80;1.90;;;22.50;77.40;;;;;;6245286;27;89179;-68
2023/04/24 06:06:15;;;;;;;3.40;2.10;;;22.50;77.40;;;;;;6244907;28;89146;-67
2023/04/24 06:09:17;;;;;;;2.15;1.95;;;22.60;77.50;;;;;;6254762;28;89657;-67
2023/04/24 06:12:21;;;;;;;2.22;2.00;;;22.50;77.40;;;;;;6252922;28;88945;-67
2023/04/24 06:15:23;;;;;;;2.20;2.00;;;22.50;77.40;;;;;;6256375;28;91816;-67
2023/04/24 06:18:25;;;;;;;2.00;1.88;;;22.60;77.50;;;;;;6257776;28;89006;-68
2023/04/24 06:21:27;;;;;;;2.10;1.90;;;22.60;77.40;;;;;;6251131;28;89031;-68
2023/04/24 06:24:29;;;;;;;2.60;2.25;;;22.60;77.40;;;;;;6247734;27;89042;-68
2023/04/24 06:27:32;;;;;;;2.22;2.00;;;22.60;77.40;;;;;;6247921;27;89080;-68
2023/04/24 06:30:34;;;;;;;2.65;1.98;;;22.60;77.50;;;;;;6256693;28;88704;-67
2023/04/24 06:33:36;;;;;;;2.10;1.90;;;22.60;77.60;;;;;;6255986;27;89189;-68
2023/04/24 06:36:38;;;;;;;2.13;1.92;;;22.60;77.70;;;;;;6256265;27;88115;-68
2023/04/24 06:39:40;;;;;;;2.30;1.70;;;22.70;77.90;;;;;;6255690;27;89945;-68
2023/04/24 06:42:44;;;;;;;2.95;2.08;;;22.70;78.90;;;;;;6247058;27;89280;-68
2023/04/24 06:45:46;;;;;;;3.05;2.10;;;22.70;78.20;;;;;;6254130;27;89108;-68
2023/04/24 06:48:48;;;;;;;2.10;1.90;;;22.70;78.40;;;;;;6256235;27;89292;-68
2023/04/24 06:51:50;;;;;;;2.08;1.90;;;22.70;78.40;;;;;;6243801;27;89052;-68
2023/04/24 06:54:53;;;;;;;3.80;1.90;;;22.80;78.80;;;;;;6248837;27;90420;-67
2023/04/24 06:57:56;;;;;;;3.38;2.08;;;22.70;79.00;;;;;;6250163;27;89086;-67
2023/04/24 07:00:58;;;;;;;2.70;2.08;;;22.80;79.10;;;;;;6253642;27;88525;-67
2023/04/24 07:04:00;;;;;;;2.55;1.90;;;22.70;79.30;;;;;;6255932;28;89047;-68
2023/04/24 07:07:04;;;;;;;4.78;2.00;;;22.80;80.30;;;;;;6251501;27;88925;-68
2023/04/24 07:10:08;;;;;;;5.95;2.15;;;22.80;79.50;;;;;;6253594;27;90123;-67
2023/04/24 07:13:11;;;;;;;2.90;1.98;;;22.80;79.70;;;;;;6253274;27;89245;-67
2023/04/24 07:16:13;;;;;;;2.95;1.90;;;22.80;79.80;;;;;;6251235;27;89752;-67
2023/04/24 07:19:15;;;;;;;4.55;1.95;;;22.80;80.00;;;;;;6249625;28;88464;-68
2023/04/24 07:22:18;;;;;;;2.08;1.90;;;22.80;80.00;;;;;;6250511;28;89378;-68
2023/04/24 07:25:20;;;;;;;2.20;2.00;;;22.80;80.10;;;;;;6254578;28;89140;-67
2023/04/24 07:28:24;;;;;;;4.72;2.03;;;22.80;80.30;;;;;;6254810;28;89126;-68
2023/04/24 07:31:26;;;;;;;2.08;1.75;;;22.90;80.50;;;;;;6248484;28;88526;-67
2023/04/24 07:34:28;;;;;;;2.25;1.90;;;22.90;80.50;;;;;;6254278;28;89387;-68
2023/04/24 07:37:30;;;;;;;2.85;1.88;;;22.90;80.50;;;;;;6255213;28;88965;-68
2023/04/24 07:40:32;;;;;;;2.60;1.85;;;22.90;80.50;;;;;;6245078;28;88708;-68
2023/04/24 07:43:36;;;;;;;2.42;2.00;;;22.90;80.60;;;;;;6249006;28;89112;-68
2023/04/24 07:46:37;;;;;;;3.28;1.80;;;22.90;80.60;;;;;;6248136;28;88108;-68
2023/04/24 07:49:39;;;;;;;2.65;1.98;;;23.00;80.70;;;;;;6254776;28;89081;-68
2023/04/24 07:52:41;;;;;;;3.10;2.15;;;22.90;80.60;;;;;;6238570;28;89160;-67
2023/04/24 07:55:43;;;;;;;2.10;1.90;;;22.90;80.70;;;;;;6254540;28;89268;-68
2023/04/24 07:58:47;;;;;;;3.00;1.90;;;22.90;80.70;;;;;;6243688;28;87903;-68
2023/04/24 08:01:49;;;;;;;2.00;1.80;;;22.90;80.80;;;;;;6254661;28;88415;-68
2023/04/24 08:04:51;;;;;;;2.10;1.65;;;22.90;80.80;;;;;;6254455;28;89651;-68
2023/04/24 08:07:53;;;;;;;2.10;1.90;;;22.90;80.80;;;;;;6253760;28;89172;-68
2023/04/24 08:10:55;;;;;;;2.53;1.60;;;23.00;80.80;;;;;;6251300;28;90027;-68
2023/04/24 08:13:58;;;;;;;2.00;1.65;;;23.00;80.90;;;;;;6245413;28;89026;-68
2023/04/24 08:17:01;;;;;;;2.33;1.92;;;23.00;80.90;;;;;;6242719;28;89225;-68
2023/04/24 08:20:04;;;;;;;1.80;1.70;;;23.00;80.90;;;;;;6254805;28;89135;-68
2023/04/24 08:23:06;;;;;;;1.88;1.67;;;23.00;80.80;;;;;;6253843;28;89012;-68
2023/04/24 08:26:08;;;;;;;2.00;1.80;;;23.00;80.80;;;;;;6250622;28;89216;-68
2023/04/24 08:29:12;;;;;;;2.35;1.70;;;23.00;80.90;;;;;;6256277;28;89375;-68
2023/04/24 08:32:14;;;;;;;3.83;1.83;;;23.00;80.80;;;;;;6248521;28;88404;-67
2023/04/24 08:35:16;;;;;;;1.88;1.73;;;23.10;80.90;;;;;;6258702;28;89107;-68
2023/04/24 08:38:18;;;;;;;2.40;1.88;;;23.00;80.80;;;;;;6254726;28;89114;-68
2023/04/24 08:41:21;;;;;;;2.67;1.83;;;23.10;80.90;;;;;;6256877;28;90147;-67
2023/04/24 08:44:24;;;;;;;1.70;1.60;;;23.10;80.90;;;;;;6254047;28;88949;-68
2023/04/24 08:47:28;;;;;;;2.00;1.80;;;23.10;81.00;;;;;;6249764;28;89074;-68
2023/04/24 08:50:32;;;;;;;1.75;1.65;;;23.10;80.80;;;;;;6258400;28;89089;-68
2023/04/24 08:53:35;;;;;;;1.77;1.67;;;23.10;80.80;;;;;;6250734;28;89123;-68
2023/04/24 08:56:40;;;;;;;1.67;1.58;;;23.10;80.80;;;;;;6256445;28;89197;-68
2023/04/24 08:59:44;;;;;;;2.53;1.50;;;23.10;80.80;;;;;;6253218;28;89054;-68
2023/04/24 09:02:48;;;;;;;1.75;1.50;;;23.10;80.80;;;;;;6255144;28;88658;-68
2023/04/24 09:05:51;;;;;;;1.77;1.60;;;23.10;80.80;;;;;;6257902;28;89194;-68
2023/04/24 09:08:56;;;;;;;1.70;1.60;;;23.10;80.70;;;;;;6255441;28;88938;-67
2023/04/24 09:11:59;;;;;;;2.00;1.65;;;23.10;80.70;;;;;;6256906;28;90603;-68
2023/04/24 09:15:04;;;;;;;1.60;1.50;;;23.10;80.70;;;;;;6247172;28;89093;-68
2023/04/24 09:18:06;;;;;;;2.28;1.63;;;23.20;80.80;;;;;;6244546;28;89177;-68
2023/04/24 09:21:09;;;;;;;1.95;1.70;;;23.10;80.60;;;;;;6257921;28;89383;-69
2023/04/24 09:24:17;;;;;;;1.65;1.55;;;23.20;80.70;;;;;;6249757;28;88034;-68
2023/04/24 09:27:19;;;;;;;1.60;1.50;;;23.20;80.70;;;;;;6251442;28;89084;-68
2023/04/24 09:30:23;;;;;;;1.70;1.50;;;23.20;80.60;;;;;;6258066;28;89637;-68
2023/04/24 09:33:25;;;;;;;1.65;1.50;;;23.20;80.60;;;;;;6257796;28;88809;-68
2023/04/24 09:36:33;;;;;;;1.60;1.50;;;23.20;80.60;;;;;;6254226;28;89135;-68
2023/04/24 09:39:34;;;;;;;1.70;1.60;;;23.20;80.70;;;;;;6256449;28;88752;-68
2023/04/24 09:42:36;;;;;;;1.60;1.50;;;23.20;80.60;;;;;;6252430;28;89992;-68
2023/04/24 09:45:40;;;;;;;1.70;1.60;;;23.20;80.60;;;;;;6252541;28;89097;-68
2023/04/24 09:48:43;;;;;;;1.55;1.42;;;23.20;80.60;;;;;;6257915;28;88315;-68
2023/04/24 09:51:45;;;;;;;1.70;1.60;;;23.20;81.50;;;;;;6255250;28;89051;-68
2023/04/24 09:54:54;;;;;;;1.58;1.48;;;23.20;80.60;;;;;;6251251;28;89102;-67
2023/04/24 09:57:59;;;;;;;1.52;1.42;;;23.20;80.70;;;;;;6239604;28;88244;-67
2023/04/24 10:01:03;;;;;;;35.15;29.10;;;23.20;80.80;;;;;;6254581;28;89264;-67
2023/04/24 10:04:05;;;;;;;97.75;82.95;;;23.20;83.10;;;;;;6250468;28;88386;-68
2023/04/24 10:07:09;;;;;;;228.18;199.80;;;23.30;87.20;;;;;;6250072;28;89108;-68
2023/04/24 10:10:12;;;;;;;89.38;74.60;;;23.30;87.50;;;;;;6248796;28;89132;-68
2023/04/24 10:13:15;;;;;;;52.70;42.70;;;23.40;83.90;;;;;;6252036;28;90077;-68
2023/04/24 10:16:20;;;;;;;46.92;38.17;;;23.50;82.20;;;;;;6245122;28;88916;-66
2023/04/24 10:19:23;;;;;;;41.65;33.38;;;23.60;81.70;;;;;;6245195;28;89688;-67
2023/04/24 10:22:26;;;;;;;42.97;35.72;;;23.60;81.60;;;;;;6248737;28;89420;-67
2023/04/24 10:25:30;;;;;;;41.10;34.00;;;23.60;81.10;;;;;;6254715;28;89088;-66
2023/04/24 10:28:34;;;;;;;39.42;33.47;;;23.60;81.10;;;;;;6248501;28;88910;-67
2023/04/24 10:31:38;;;;;;;39.55;32.63;;;23.60;81.10;;;;;;6254271;28;88970;-67
2023/04/24 10:34:40;;;;;;;38.47;30.63;;;23.60;81.00;;;;;;6252351;28;88382;-67
2023/04/24 10:37:45;;;;;;;35.15;29.13;;;23.60;81.00;;;;;;6252545;28;89086;-66
2023/04/24 10:40:48;;;;;;;36.25;29.75;;;23.50;81.00;;;;;;6252602;28;88989;-66
2023/04/24 10:44:05;;;;;;;34.80;27.38;;;23.50;81.00;;;;;;6250153;28;90022;-67
2023/04/24 10:47:14;;;;;;;34.63;26.83;;;23.50;80.90;;;;;;6243272;27;89374;-68
2023/04/24 10:50:16;;;;;;;26.05;20.67;;;23.50;81.00;;;;;;6248421;27;87985;-67
2023/04/24 10:53:19;;;;;;;23.05;18.58;;;23.50;80.70;;;;;;6240533;28;89105;-67
2023/04/24 10:56:23;;;;;;;21.30;18.00;;;23.40;80.00;;;;;;6252636;28;89472;-67
2023/04/24 10:59:28;;;;;;;19.75;15.90;;;23.40;79.90;;;;;;6252038;28;89075;-67
2023/04/24 11:02:40;;;;;;;18.17;13.75;;;23.40;80.00;;;;;;6255069;28;89136;-67
2023/04/24 11:05:57;;;;;;;14.07;11.40;;;23.30;79.60;;;;;;6245224;28;87237;-66
2023/04/24 11:09:05;;;;;;;11.45;9.75;;;23.30;78.90;;;;;;6244800;28;89094;-68
2023/04/24 11:12:10;;;;;;;7.85;6.80;;;23.30;78.30;;;;;;6245512;28;89141;-67
2023/04/24 11:15:13;;;;;;;7.80;6.18;;;23.30;77.60;;;;;;6245510;28;90146;-67
2023/04/24 11:18:16;;;;;;;5.10;4.60;;;23.20;77.20;;;;;;6252989;28;89268;-67
2023/04/24 11:21:19;;;;;;;5.18;3.85;;;23.20;76.90;;;;;;6255175;28;87650;-68
2023/04/24 11:24:32;;;;;;;5.28;3.50;;;23.20;76.80;;;;;;6253957;28;89010;-67
2023/04/24 11:27:40;;;;;;;3.17;2.88;;;23.10;76.60;;;;;;6252777;28;89088;-68
2023/04/24 11:30:42;;;;;;;3.22;2.47;;;23.10;76.20;;;;;;6253428;28;89106;-67
2023/04/24 11:33:46;;;;;;;3.13;2.53;;;23.10;76.30;;;;;;6243947;28;89606;-68
2023/04/24 11:36:48;;;;;;;3.05;1.90;;;23.10;76.40;;;;;;6255469;28;88323;-67
2023/04/24 11:39:53;;;;;;;2.35;2.15;;;23.10;76.20;;;;;;6245302;28;89104;-67
2023/04/24 11:42:55;;;;;;;2.13;1.35;;;23.10;76.40;;;;;;6240525;28;88008;-67
2023/04/24 11:46:01;;;;;;;1.90;1.40;;;23.10;76.20;;;;;;6253458;28;89303;-67
2023/04/24 11:49:05;;;;;;;2.15;1.60;;;23.10;75.70;;;;;;6250990;28;89441;-67
2023/04/24 11:52:07;;;;;;;1.75;1.35;;;23.00;75.40;;;;;;6249367;28;88020;-66
2023/04/24 11:55:23;;;;;;;2.17;1.40;;;23.10;75.00;;;;;;6251334;28;89118;-66
2023/04/24 11:58:27;;;;;;;1.38;1.27;;;23.00;75.20;;;;;;6241407;28;89185;-66
2023/04/24 12:01:29;;;;;;;1.50;1.40;;;23.00;75.50;;;;;;6255438;28;89059;-66
2023/04/24 12:04:40;;;;;;;3.20;1.20;;;23.10;76.00;;;;;;6261506;28;89070;-67
2023/04/24 12:07:43;;;;;;;1.30;1.20;;;23.10;76.20;;;;;;6255691;28;88416;-67
2023/04/24 12:10:45;;;;;;;2.15;1.35;;;23.10;76.40;;;;;;6263332;28;89115;-67
2023/04/24 12:13:47;;;;;;;1.63;1.20;;;23.10;76.50;;;;;;6257224;28;89065;-66
2023/04/24 12:16:49;;;;;;;1.42;1.33;;;23.10;76.60;;;;;;6249921;28;90198;-67
2023/04/24 12:19:53;;;;;;;2.05;1.25;;;23.10;76.80;;;;;;6248491;28;89103;-67
2023/04/24 12:22:57;;;;;;;1.50;1.33;;;23.10;76.80;;;;;;6258875;28;89199;-67
2023/04/24 12:26:01;;;;;;;1.30;1.20;;;23.10;76.90;;;;;;6256583;28;89128;-66
2023/04/24 12:29:05;;;;;;;2.53;1.20;;;23.10;77.00;;;;;;6257879;27;87554;-66
2023/04/24 12:32:17;;;;;;;2.28;1.50;;;23.10;77.10;;;;;;6262184;28;89107;-67
2023/04/24 12:35:23;;;;;;;1.90;1.40;;;23.10;77.10;;;;;;6254960;28;89106;-67
2023/04/24 12:38:27;;;;;;;1.60;1.50;;;23.10;77.20;;;;;;6257773;28;88365;-67
2023/04/24 12:41:32;;;;;;;2.15;1.38;;;23.10;77.20;;;;;;6263557;28;88742;-67
2023/04/24 12:44:37;;;;;;;1.40;1.30;;;23.10;77.20;;;;;;6259168;28;89044;-67
2023/04/24 12:47:40;;;;;;;1.40;1.30;;;23.10;77.30;;;;;;6261584;28;90081;-66
2023/04/24 12:50:43;;;;;;;1.67;1.30;;;23.20;77.40;;;;;;6262335;28;89359;-67
2023/04/24 12:53:45;;;;;;;1.30;1.20;;;23.20;77.40;;;;;;6257849;28;89009;-67
2023/04/24 12:56:47;;;;;;;1.50;1.40;;;23.10;77.40;;;;;;6261045;28;89172;-67
2023/04/24 12:59:50;;;;;;;2.13;1.40;;;23.20;77.50;;;;;;6249178;28;89283;-67
2023/04/24 13:02:52;;;;;;;1.40;1.30;;;23.10;77.50;;;;;;6259386;28;89161;-66
2023/04/24 13:05:55;;;;;;;1.70;1.50;;;23.10;77.50;;;;;;6253031;28;89061;-66
2023/04/24 13:08:57;;;;;;;1.42;1.30;;;23.20;77.60;;;;;;6260782;27;88482;-66
2023/04/24 13:12:00;;;;;;;1.40;1.25;;;23.20;77.60;;;;;;6254756;27;89086;-67
2023/04/24 13:15:03;;;;;;;1.50;1.30;;;23.20;77.60;;;;;;6248712;27;88977;-66
2023/04/24 13:18:05;;;;;;;2.33;1.30;;;23.20;77.60;;;;;;6253153;28;89991;-67
2023/04/24 13:21:08;;;;;;;1.30;1.20;;;23.30;77.70;;;;;;6257483;28;89142;-67
2023/04/24 13:24:11;;;;;;;1.35;1.25;;;23.20;77.70;;;;;;6258141;28;89104;-66
2023/04/24 13:27:13;;;;;;;1.30;1.20;;;23.20;77.70;;;;;;6258093;28;87933;-67
2023/04/24 13:30:15;;;;;;;1.50;1.40;;;23.20;77.70;;;;;;6257170;28;89352;-66
2023/04/24 13:33:17;;;;;;;1.40;1.30;;;23.20;77.70;;;;;;6256917;28;89661;-67
2023/04/24 13:36:20;;;;;;;1.60;1.30;;;23.20;77.80;;;;;;6258160;28;89189;-67
2023/04/24 13:39:23;;;;;;;1.40;1.30;;;23.30;77.80;;;;;;6257761;27;88478;-67
2023/04/24 13:42:25;;;;;;;1.45;1.20;;;23.30;77.80;;;;;;6255508;28;89074;-67
2023/04/24 13:45:27;;;;;;;1.30;1.20;;;23.20;77.70;;;;;;6255928;27;89164;-67
2023/04/24 13:48:29;;;;;;;1.30;1.20;;;23.30;77.70;;;;;;6256965;28;90029;-67
2023/04/24 13:51:33;;;;;;;1.38;1.27;;;23.20;77.70;;;;;;6253730;28;89166;-67
2023/04/24 13:54:35;;;;;;;1.40;1.30;;;23.30;77.70;;;;;;6252852;28;89115;-67
2023/04/24 13:57:37;;;;;;;1.60;1.20;;;23.30;77.70;;;;;;6256468;28;89129;-67
2023/04/24 14:00:39;;;;;;;1.73;1.38;;;23.30;77.70;;;;;;6257304;28;89019;-67
2023/04/24 14:03:42;;;;;;;1.30;1.20;;;23.30;77.70;;;;;;6256713;28;89045;-67
2023/04/24 14:06:46;;;;;;;1.90;1.17;;;23.20;77.70;;;;;;6255451;28;89129;-67
2023/04/24 14:09:48;;;;;;;1.25;1.15;;;23.20;77.70;;;;;;6257014;28;88418;-67
2023/04/24 14:12:50;;;;;;;1.40;1.30;;;23.20;77.70;;;;;;6256355;28;89174;-67
2023/04/24 14:15:52;;;;;;;1.50;1.40;;;23.30;77.70;;;;;;6246548;28;89107;-67
2023/04/24 14:18:54;;;;;;;1.42;1.33;;;23.30;77.60;;;;;;6256649;28;90144;-67
2023/04/24 14:21:58;;;;;;;1.15;1.05;;;23.30;77.60;;;;;;6256376;28;89308;-67
2023/04/24 14:25:00;;;;;;;1.42;1.17;;;23.20;77.50;;;;;;6255696;27;89042;-67
2023/04/24 14:28:02;;;;;;;1.85;1.42;;;23.30;77.50;;;;;;6255890;28;89110;-67
2023/04/24 14:31:04;;;;;;;1.30;1.20;;;23.20;77.40;;;;;;6254787;28;89080;-67
2023/04/24 14:34:06;;;;;;;2.35;1.42;;;23.20;77.40;;;;;;6256973;28;89265;-67
2023/04/24 14:37:09;;;;;;;1.98;1.50;;;23.30;77.40;;;;;;6256401;28;89429;-67
2023/04/24 14:40:12;;;;;;;2.40;1.50;;;23.20;77.20;;;;;;6257489;28;88631;-67
2023/04/24 14:43:14;;;;;;;1.52;1.40;;;23.30;77.30;;;;;;6247650;28;89110;-67
2023/04/24 14:46:16;;;;;;;1.40;1.30;;;23.30;77.20;;;;;;6255921;28;89130;-67
2023/04/24 14:49:18;;;;;;;1.58;1.48;;;23.20;77.20;;;;;;6252494;28;89124;-68
2023/04/24 14:52:22;;;;;;;2.72;1.40;;;23.20;77.10;;;;;;6247654;28;89094;-67
2023/04/24 14:55:24;;;;;;;1.45;1.35;;;23.30;77.20;;;;;;6253574;28;89060;-68
2023/04/24 14:58:26;;;;;;;1.65;1.50;;;23.30;77.20;;;;;;6255249;28;89977;-67
2023/04/24 15:01:28;;;;;;;1.60;1.40;;;23.20;77.20;;;;;;6254710;28;89065;-67
2023/04/24 15:04:30;;;;;;;2.60;1.60;;;23.20;77.20;;;;;;6255767;28;89067;-67
2023/04/24 15:07:35;;;;;;;1.70;1.60;;;23.30;77.20;;;;;;6249909;27;88976;-68
2023/04/24 15:10:37;;;;;;;2.30;1.85;;;23.20;77.10;;;;;;6246396;27;88372;-67
2023/04/24 15:13:39;;;;;;;1.42;1.33;;;23.30;77.10;;;;;;6251874;27;89048;-68
2023/04/24 15:16:41;;;;;;;3.78;1.40;;;23.30;77.10;;;;;;6252441;28;88033;-67
2023/04/24 15:19:43;;;;;;;1.52;1.25;;;23.30;77.10;;;;;;6253634;27;90333;-67
2023/04/24 15:22:47;;;;;;;2.40;1.50;;;23.30;77.10;;;;;;6255859;28;89142;-68
2023/04/24 15:25:49;;;;;;;1.70;1.60;;;23.30;77.20;;;;;;6254710;28;89123;-67
2023/04/24 15:28:51;;;;;;;1.90;1.63;;;23.30;77.20;;;;;;6251232;28;89043;-67
2023/04/24 15:31:53;;;;;;;1.75;1.60;;;23.30;77.20;;;;;;6252693;28;89345;-67
2023/04/24 15:34:55;;;;;;;2.58;1.50;;;23.30;77.20;;;;;;6250615;28;88087;-67
2023/04/24 15:37:59;;;;;;;1.58;1.48;;;23.30;77.20;;;;;;6238915;28;89527;-67
2023/04/24 15:41:01;;;;;;;2.05;1.60;;;23.30;77.20;;;;;;6243223;28;88340;-67
2023/04/24 15:44:03;;;;;;;1.80;1.63;;;23.30;77.10;;;;;;6246013;28;88962;-67
2023/04/24 15:47:06;;;;;;;2.03;1.80;;;23.30;77.10;;;;;;6249917;27;89086;-67
2023/04/24 15:50:10;;;;;;;2.05;1.70;;;23.30;77.20;;;;;;6251435;28;90041;-67